createdAt,value
2023-04-15T00:00:58.477Z,3.90
2023-04-15T00:03:25.686Z,3.90
2023-04-15T00:05:52.801Z,3.90
2023-04-15T00:08:20.521Z,3.90
2023-04-15T00:10:47.248Z,3.90
2023-04-15T00:13:13.933Z,3.90
2023-04-15T00:15:40.958Z,3.70
2023-04-15T00:18:08.293Z,3.80
2023-04-15T00:20:35.436Z,3.80
2023-04-15T00:23:02.638Z,3.80
2023-04-15T00:25:29.458Z,3.80
2023-04-15T00:27:56.150Z,3.70
2023-04-15T00:30:24.082Z,3.70
2023-04-15T00:32:50.927Z,3.60
2023-04-15T00:35:18.293Z,3.60
2023-04-15T00:37:46.389Z,3.80
2023-04-15T00:40:13.897Z,3.50
2023-04-15T00:42:40.994Z,3.70
2023-04-15T00:45:08.827Z,3.70
2023-04-15T00:47:37.261Z,3.70
2023-04-15T00:50:04.300Z,3.60
2023-04-15T00:52:31.158Z,3.60
2023-04-15T00:54:57.839Z,3.80
2023-04-15T00:57:24.487Z,3.60
2023-04-15T00:59:52.622Z,3.50
2023-04-15T01:02:19.716Z,3.50
2023-04-15T01:04:47.090Z,3.60
2023-04-15T01:07:13.815Z,3.50
2023-04-15T01:09:40.742Z,3.70
2023-04-15T01:12:08.644Z,3.50
2023-04-15T01:14:35.310Z,3.60
2023-04-15T01:17:02.279Z,3.80
2023-04-15T01:19:29.126Z,3.60
2023-04-15T01:21:57.602Z,3.90
2023-04-15T01:24:26.193Z,3.90
2023-04-15T01:26:52.864Z,3.50
2023-04-15T01:29:19.937Z,3.60
2023-04-15T01:31:53.709Z,3.80
2023-04-15T01:34:20.961Z,3.90
2023-04-15T01:36:47.876Z,3.80
2023-04-15T01:39:14.873Z,3.90
2023-04-15T01:41:42.445Z,3.90
2023-04-15T01:44:09.249Z,3.90
2023-04-15T01:46:36.460Z,4.10
2023-04-15T01:49:03.285Z,4.10
2023-04-15T01:51:29.982Z,4.10
2023-04-15T01:53:59.568Z,4.10
2023-04-15T01:56:26.732Z,4.00
2023-04-15T01:58:53.660Z,4.10
2023-04-15T02:01:21.028Z,4.10
2023-04-15T02:03:48.176Z,4.20
2023-04-15T02:06:15.113Z,4.40
2023-04-15T02:08:41.810Z,4.20
2023-04-15T02:11:08.519Z,4.20
2023-04-15T02:13:35.189Z,4.20
2023-04-15T02:16:01.936Z,4.30
2023-04-15T02:18:28.753Z,4.10
2023-04-15T02:20:57.395Z,4.90
2023-04-15T02:23:24.391Z,4.10
2023-04-15T02:25:53.831Z,4.30
2023-04-15T02:28:21.382Z,4.30
2023-04-15T02:30:50.938Z,4.20
2023-04-15T02:33:18.030Z,4.20
2023-04-15T02:35:45.473Z,4.10
2023-04-15T02:38:12.287Z,4.10
2023-04-15T02:40:39.008Z,4.10
2023-04-15T02:43:07.068Z,3.90
2023-04-15T02:45:33.909Z,4.00
2023-04-15T02:48:03.992Z,3.90
2023-04-15T02:50:31.670Z,3.90
2023-04-15T02:52:58.473Z,4.10
2023-04-15T02:55:25.184Z,4.10
2023-04-15T02:57:51.937Z,4.00
2023-04-15T03:00:18.599Z,4.00
2023-04-15T03:02:46.274Z,4.20
2023-04-15T03:05:13.974Z,4.20
2023-04-15T03:07:40.997Z,4.30
2023-04-15T03:10:08.282Z,4.10
2023-04-15T03:12:34.908Z,4.30
2023-04-15T03:15:02.140Z,4.00
2023-04-15T03:17:28.925Z,4.10
2023-04-15T03:19:55.693Z,4.10
2023-04-15T03:22:22.446Z,4.30
2023-04-15T03:24:49.140Z,4.20
2023-04-15T03:27:15.993Z,4.30
2023-04-15T03:29:42.680Z,5.30
2023-04-15T03:32:09.426Z,4.20
2023-04-15T03:34:36.156Z,4.10
2023-04-15T03:37:02.811Z,4.10
2023-04-15T03:39:29.495Z,4.10
2023-04-15T03:41:56.510Z,4.00
2023-04-15T03:44:23.197Z,4.20
2023-04-15T03:46:50.032Z,5.10
2023-04-15T03:49:16.749Z,4.30
2023-04-15T03:51:43.326Z,4.20
2023-04-15T03:54:10.019Z,4.20
2023-04-15T03:56:36.678Z,4.50
2023-04-15T03:59:03.532Z,4.30
2023-04-15T04:01:30.290Z,4.50
2023-04-15T04:03:57.136Z,4.40
2023-04-15T04:06:23.964Z,4.40
2023-04-15T04:08:50.710Z,4.50
2023-04-15T04:11:17.462Z,4.50
2023-04-15T04:13:44.112Z,4.50
2023-04-15T04:16:11.147Z,4.50
2023-04-15T04:18:37.923Z,4.40
2023-04-15T04:21:04.623Z,4.40
2023-04-15T04:23:31.434Z,5.50
2023-04-15T04:25:58.089Z,4.50
2023-04-15T04:28:24.767Z,4.40
2023-04-15T04:30:51.782Z,4.40
2023-04-15T04:33:18.517Z,4.50
2023-04-15T04:35:45.430Z,5.00
2023-04-15T04:38:12.122Z,4.50
2023-04-15T04:40:38.856Z,4.50
2023-04-15T04:43:05.558Z,4.40
2023-04-15T04:45:32.273Z,4.10
2023-04-15T04:47:59.033Z,4.40
2023-04-15T04:50:25.749Z,4.00
2023-04-15T04:52:52.466Z,4.70
2023-04-15T04:55:19.154Z,4.30
2023-04-15T04:57:46.122Z,4.80
2023-04-15T05:00:12.986Z,4.20
2023-04-15T05:02:39.773Z,4.90
2023-04-15T05:05:06.830Z,4.50
2023-04-15T05:10:00.596Z,5.00
2023-04-15T05:12:27.281Z,4.90
2023-04-15T05:14:54.019Z,6.00
2023-04-15T05:17:20.697Z,5.60
2023-04-15T05:19:47.432Z,5.00
2023-04-15T05:24:41.340Z,5.20
2023-04-15T05:27:08.597Z,5.00
2023-04-15T05:29:35.262Z,4.90
2023-04-15T05:32:01.920Z,5.00
2023-04-15T05:34:28.583Z,5.00
2023-04-15T05:36:55.459Z,5.00
2023-04-15T05:39:22.061Z,5.10
2023-04-15T05:41:48.728Z,4.90
2023-04-15T05:44:15.505Z,5.20
2023-04-15T05:46:42.519Z,5.10
2023-04-15T05:49:09.284Z,5.50
2023-04-15T05:51:36.137Z,4.60
2023-04-15T05:54:02.851Z,5.00
2023-04-15T05:56:29.506Z,5.10
2023-04-15T05:58:56.547Z,5.40
2023-04-15T06:01:23.216Z,5.40
2023-04-15T06:03:50.263Z,5.40
2023-04-15T06:06:17.155Z,5.50
2023-04-15T06:08:43.811Z,6.00
2023-04-15T06:11:10.462Z,6.00
2023-04-15T06:13:37.199Z,5.90
2023-04-15T06:16:04.492Z,5.90
2023-04-15T06:18:31.195Z,6.20
2023-04-15T06:20:57.950Z,5.30
2023-04-15T06:23:26.361Z,5.50
2023-04-15T06:25:53.750Z,6.30
2023-04-15T06:28:20.482Z,5.80
2023-04-15T06:30:47.222Z,5.60
2023-04-15T06:33:13.891Z,6.60
2023-04-15T06:35:41.076Z,6.50
2023-04-15T06:38:07.769Z,6.40
2023-04-15T06:40:34.899Z,6.40
2023-04-15T06:43:01.845Z,6.20
2023-04-15T06:45:28.596Z,6.20
2023-04-15T06:47:55.384Z,6.80
2023-04-15T06:50:22.093Z,6.50
2023-04-15T06:52:48.781Z,6.90
2023-04-15T06:55:16.807Z,6.80
2023-04-15T06:57:43.487Z,6.90
2023-04-15T07:00:12.138Z,6.50
2023-04-15T07:02:39.016Z,7.20
2023-04-15T07:05:06.944Z,7.10
2023-04-15T07:07:33.610Z,7.10
2023-04-15T07:10:02.067Z,6.80
2023-04-15T07:12:28.750Z,6.80
2023-04-15T07:14:55.535Z,6.80
2023-04-15T07:17:22.302Z,6.90
2023-04-15T07:19:49.284Z,6.80
2023-04-15T07:22:16.050Z,6.70
2023-04-15T07:24:42.738Z,7.50
2023-04-15T07:27:09.438Z,6.80
2023-04-15T07:29:36.215Z,7.00
2023-04-15T07:32:03.473Z,6.40
2023-04-15T07:34:31.517Z,7.80
2023-04-15T07:36:59.376Z,7.40
2023-04-15T07:39:26.492Z,7.20
2023-04-15T07:41:53.195Z,6.80
2023-04-15T07:44:19.940Z,7.00
2023-04-15T07:46:47.659Z,7.80
2023-04-15T07:49:14.511Z,6.50
2023-04-15T07:51:41.166Z,7.10
2023-04-15T07:54:07.876Z,6.80
2023-04-15T07:56:34.596Z,8.60
2023-04-15T07:59:02.769Z,8.30
2023-04-15T08:01:29.633Z,6.30
2023-04-15T08:03:57.278Z,7.10
2023-04-15T08:06:24.465Z,6.60
2023-04-15T08:08:51.104Z,7.00
2023-04-15T08:11:17.795Z,7.10
2023-04-15T08:13:44.447Z,7.00
2023-04-15T08:16:29.748Z,6.50
2023-04-15T08:18:56.800Z,7.50
2023-04-15T08:21:23.917Z,7.60
2023-04-15T08:23:51.496Z,8.40
2023-04-15T08:26:18.871Z,7.50
2023-04-15T08:28:46.022Z,7.60
2023-04-15T08:33:39.721Z,7.90
2023-04-15T08:36:07.542Z,7.70
2023-04-15T08:38:34.251Z,7.80
2023-04-15T08:41:03.694Z,8.30
2023-04-15T08:43:33.791Z,8.10
2023-04-15T08:46:01.683Z,8.50
2023-04-15T08:48:32.810Z,8.50
2023-04-15T08:50:59.971Z,8.60
2023-04-15T08:53:26.791Z,7.50
2023-04-15T08:55:57.305Z,7.50
2023-04-15T08:58:24.583Z,7.60
2023-04-15T09:00:51.295Z,7.30
2023-04-15T09:03:19.215Z,7.10
2023-04-15T09:05:47.116Z,7.40
2023-04-15T09:08:14.002Z,8.20
2023-04-15T09:10:40.698Z,7.30
2023-04-15T09:13:20.461Z,7.20
2023-04-15T09:15:47.384Z,7.40
2023-04-15T09:18:14.657Z,7.40
2023-04-15T09:20:42.431Z,7.10
2023-04-15T09:23:15.783Z,7.30
2023-04-15T09:25:42.662Z,7.20
2023-04-15T09:28:09.598Z,7.20
2023-04-15T09:30:50.532Z,7.40
2023-04-15T09:33:17.650Z,8.00
2023-04-15T09:36:05.826Z,7.50
2023-04-15T09:38:34.823Z,7.80
2023-04-15T09:41:01.488Z,9.80
2023-04-15T09:43:39.848Z,6.90
2023-04-15T09:46:39.008Z,7.70
2023-04-15T09:49:09.780Z,7.80
2023-04-15T09:51:57.596Z,7.60
2023-04-15T09:54:41.829Z,8.70
2023-04-15T09:59:37.438Z,8.30
2023-04-15T10:02:16.000Z,9.00
2023-04-15T10:04:46.160Z,8.80
2023-04-15T10:07:26.661Z,8.40
2023-04-15T10:10:00.250Z,9.70
2023-04-15T10:12:27.785Z,7.70
2023-04-15T10:15:02.719Z,9.70
2023-04-15T10:17:33.646Z,9.30
2023-04-15T10:20:01.174Z,9.30
2023-04-15T10:22:28.298Z,9.00
2023-04-15T10:24:56.365Z,8.40
2023-04-15T10:27:23.722Z,8.80
2023-04-15T10:29:54.277Z,8.70
2023-04-15T10:32:23.955Z,8.20
2023-04-15T10:34:54.337Z,8.30
2023-04-15T10:37:37.965Z,9.80
2023-04-15T10:40:29.860Z,8.30
2023-04-15T10:42:59.530Z,8.60
2023-04-15T10:45:28.098Z,9.70
2023-04-15T10:47:55.819Z,10.00
2023-04-15T10:50:22.836Z,9.80
2023-04-15T10:52:51.716Z,8.70
2023-04-15T10:55:25.434Z,9.60
2023-04-15T17:04:13.496Z,8.30
2023-04-15T17:06:40.214Z,8.30
2023-04-15T17:09:07.259Z,8.20
2023-04-15T17:11:35.163Z,8.30
2023-04-15T17:14:02.619Z,8.00
2023-04-15T17:16:29.304Z,8.10
2023-04-15T17:18:55.988Z,8.00
2023-04-15T17:21:22.677Z,8.00
2023-04-15T17:23:50.137Z,7.90
2023-04-15T17:26:16.805Z,8.10
2023-04-15T17:28:43.472Z,7.90
2023-04-15T17:31:10.288Z,7.90
2023-04-15T17:33:56.354Z,7.90
2023-04-15T17:36:23.784Z,8.50
2023-04-15T17:38:50.449Z,7.80
2023-04-15T17:41:17.108Z,7.80
2023-04-15T17:43:43.748Z,8.40
2023-04-15T17:46:12.078Z,7.60
2023-04-15T17:48:38.823Z,7.50
2023-04-15T17:51:05.679Z,7.60
2023-04-15T17:53:32.363Z,8.10
2023-04-15T17:55:59.248Z,7.60
2023-04-15T17:58:26.999Z,7.60
2023-04-15T18:00:57.307Z,7.60
2023-04-15T18:03:24.148Z,8.40
2023-04-15T18:05:51.021Z,7.60
2023-04-15T18:08:18.500Z,7.50
2023-04-15T18:10:45.198Z,8.00
2023-04-15T18:13:11.807Z,7.40
2023-04-15T18:15:38.714Z,7.50
2023-04-15T18:18:05.384Z,8.40
2023-04-15T18:20:35.792Z,7.60
2023-04-15T18:23:03.723Z,7.50
2023-04-15T18:25:31.248Z,7.50
2023-04-15T18:27:59.460Z,7.50
2023-04-15T18:30:26.257Z,7.50
2023-04-15T18:32:52.939Z,7.40
2023-04-15T18:35:20.924Z,7.30
2023-04-15T18:37:47.562Z,7.40
2023-04-15T18:40:16.157Z,7.40
2023-04-15T18:42:42.753Z,7.40
2023-04-15T18:45:19.491Z,7.40
2023-04-15T18:47:47.922Z,7.30
2023-04-15T18:50:14.591Z,7.30
2023-04-15T18:52:41.254Z,7.30
2023-04-15T18:55:09.020Z,7.30
2023-04-15T18:57:37.596Z,7.40
2023-04-15T19:00:04.712Z,7.40
2023-04-15T19:02:31.466Z,7.30
2023-04-15T19:05:00.235Z,7.30
2023-04-15T19:07:26.885Z,7.30
2023-04-15T19:09:53.460Z,7.30
2023-04-15T19:12:20.052Z,7.30
2023-04-15T19:14:46.620Z,7.40
2023-04-15T19:17:13.169Z,7.80
2023-04-15T19:19:39.764Z,7.40
2023-04-15T19:22:06.724Z,7.30
2023-04-15T19:24:35.131Z,7.30
2023-04-15T19:27:01.888Z,7.30
2023-04-15T19:29:28.809Z,7.30
2023-04-15T19:31:56.032Z,7.30
2023-04-15T19:34:22.704Z,7.70
2023-04-15T19:36:49.391Z,7.20
2023-04-15T19:39:16.159Z,7.40
2023-04-15T19:41:44.296Z,7.20
2023-04-15T19:44:12.862Z,7.10
2023-04-15T19:46:44.882Z,7.20
2023-04-15T19:49:11.654Z,7.20
2023-04-15T19:51:38.313Z,7.30
2023-04-15T19:54:05.027Z,7.30
2023-04-15T19:56:34.176Z,7.50
2023-04-15T19:59:02.834Z,7.30
2023-04-15T20:01:29.561Z,7.20
2023-04-15T20:03:57.801Z,7.80
2023-04-15T20:06:24.623Z,7.30
2023-04-15T20:08:51.948Z,8.00
2023-04-15T20:11:18.863Z,7.30
2023-04-15T20:13:45.520Z,7.20
2023-04-15T20:16:12.862Z,7.30
2023-04-15T20:18:39.658Z,7.30
2023-04-15T20:21:06.357Z,7.10
2023-04-15T20:23:35.192Z,7.30
2023-04-15T20:26:01.820Z,7.30
2023-04-15T20:28:28.502Z,7.30
2023-04-15T20:30:55.364Z,7.20
2023-04-15T20:33:22.370Z,7.20
2023-04-15T20:35:52.173Z,7.20
2023-04-15T20:38:19.007Z,7.20
2023-04-15T20:40:45.990Z,7.20
2023-04-15T20:43:15.980Z,7.20
2023-04-15T20:45:42.604Z,7.20
2023-04-15T20:48:10.163Z,7.20
2023-04-15T20:50:38.731Z,7.90
2023-04-15T20:53:05.377Z,7.10
2023-04-15T20:55:32.031Z,7.00
2023-04-15T20:58:01.501Z,7.00
2023-04-15T21:00:28.322Z,7.10
2023-04-15T21:02:55.326Z,7.50
2023-04-15T21:05:23.327Z,7.40
2023-04-15T21:07:52.809Z,7.10
2023-04-15T21:10:19.788Z,7.10
2023-04-15T21:12:46.565Z,7.20
2023-04-15T21:15:13.211Z,7.20
2023-04-15T21:17:39.893Z,7.10
2023-04-15T21:20:06.919Z,7.10
2023-04-15T21:22:33.644Z,7.10
2023-04-15T21:25:00.326Z,7.10
2023-04-15T21:27:26.986Z,7.10
2023-04-15T21:29:55.018Z,7.10
2023-04-15T21:32:21.652Z,7.20
2023-04-15T21:34:48.308Z,7.90
2023-04-15T21:37:14.969Z,7.10
2023-04-15T21:39:41.606Z,7.20
2023-04-15T21:42:08.288Z,7.20
2023-04-15T21:44:37.368Z,7.10
2023-04-15T21:47:04.040Z,7.20
2023-04-15T21:49:30.750Z,7.20
2023-04-15T21:52:01.320Z,7.20
2023-04-15T21:54:31.090Z,7.10
2023-04-15T21:56:57.770Z,7.10
2023-04-15T21:59:24.439Z,7.20
2023-04-15T22:01:51.265Z,7.20
2023-04-15T22:04:19.555Z,7.20
2023-04-15T22:06:46.954Z,7.10
2023-04-15T22:09:14.516Z,7.10
2023-04-15T22:11:41.399Z,7.40
2023-04-15T22:14:09.452Z,7.10
2023-04-15T22:16:36.143Z,7.20
2023-04-15T22:19:02.914Z,7.20
2023-04-15T22:21:29.694Z,7.20
2023-04-15T22:24:32.494Z,7.10
2023-04-15T22:26:43.118Z,7.10
2023-04-15T22:29:12.214Z,7.20
2023-04-15T22:31:39.081Z,7.20
2023-04-15T22:34:05.869Z,7.70
2023-04-15T22:36:34.127Z,7.20
2023-04-15T22:39:00.951Z,7.10
2023-04-15T22:41:27.631Z,7.20
2023-04-15T22:43:57.517Z,7.10
2023-04-15T22:46:24.201Z,7.00
2023-04-15T22:48:53.129Z,7.10
2023-04-15T22:51:23.875Z,7.20
2023-04-15T22:53:50.637Z,7.20
2023-04-15T22:56:21.258Z,7.10
2023-04-15T22:58:48.235Z,7.20
2023-04-15T23:01:17.670Z,7.60
2023-04-15T23:03:56.906Z,7.10
2023-04-15T23:06:31.295Z,7.00
2023-04-15T23:08:57.957Z,7.10
2023-04-15T23:11:24.697Z,7.10
2023-04-15T23:13:51.379Z,7.10
2023-04-15T23:16:18.041Z,6.90
2023-04-15T23:18:44.827Z,7.10
2023-04-15T23:21:11.505Z,7.10
2023-04-15T23:23:38.224Z,7.10
2023-04-15T23:26:05.154Z,7.70
2023-04-15T23:28:31.810Z,7.10
2023-04-15T23:31:00.429Z,7.00
2023-04-15T23:33:27.410Z,7.10
2023-04-15T23:35:54.102Z,7.40
2023-04-15T23:38:20.830Z,7.10
2023-04-15T23:40:47.464Z,7.10
2023-04-15T23:43:14.151Z,7.10
2023-04-15T23:45:40.905Z,7.10
2023-04-15T23:48:07.621Z,8.00
2023-04-15T23:50:34.518Z,7.00
2023-04-15T23:53:02.034Z,7.00
2023-04-15T23:55:31.847Z,7.10
2023-04-15T23:57:58.467Z,7.10
